Time,TemperatureF,DewpointF,PressureIn,WindDirection,WindDirectionDegrees,WindSpeedMPH,WindSpeedGustMPH,Humidity,HourlyPrecipIn,Conditions,Clouds,dailyrainin,SoftwareType,DateUTC
2013-04-08 00:03:00,40.0,33.0,29.94,NNE,27,0.0,0.0,77,0.00,,,0.03,,2013-04-08 04:03:00,
2013-04-08 00:12:00,40.0,33.0,29.94,NNE,27,0.0,0.0,77,0.00,,,0.03,,2013-04-08 04:12:00,
2013-04-08 00:23:00,40.0,33.0,29.94,NNE,27,0.0,0.0,77,0.00,,,0.03,,2013-04-08 04:23:00,
2013-04-08 00:33:00,40.0,34.0,29.94,NNE,27,0.0,0.0,79,0.00,,,0.02,,2013-04-08 04:33:00,
2013-04-08 00:44:00,40.0,34.0,29.94,NNE,27,0.0,0.0,79,0.00,,,0.02,,2013-04-08 04:44:00,
2013-04-08 00:52:00,39.0,33.0,29.93,NNE,27,0.0,0.0,79,0.00,,,0.02,,2013-04-08 04:52:00,
2013-04-08 01:02:00,40.0,34.0,29.93,NNE,27,0.0,0.0,79,0.00,,,0.02,,2013-04-08 05:02:00,
2013-04-08 01:12:00,40.0,34.0,29.93,NNE,27,0.0,0.0,79,0.00,,,0.02,,2013-04-08 05:12:00,
2013-04-08 01:22:00,40.0,34.0,29.93,NNE,27,0.0,0.0,79,0.00,,,0.02,,2013-04-08 05:22:00,
2013-04-08 01:32:00,41.0,34.0,29.93,ENE,66,0.0,4.0,76,0.00,,,0.02,,2013-04-08 05:32:00,
2013-04-08 01:42:00,41.0,34.0,29.92,ENE,75,0.0,2.0,76,0.00,,,0.02,,2013-04-08 05:42:00,
2013-04-08 01:52:00,41.0,34.0,29.92,ENE,75,0.0,2.0,76,0.00,,,0.02,,2013-04-08 05:52:00,
2013-04-08 02:02:00,41.0,34.0,29.92,ENE,75,0.0,1.0,75,0.00,,,0.02,,2013-04-08 06:02:00,
2013-04-08 02:12:00,41.0,33.0,29.92,East,79,0.0,4.0,74,0.00,,,0.02,,2013-04-08 06:12:00,
2013-04-08 02:22:00,41.0,33.0,29.92,East,79,0.0,4.0,74,0.00,,,0.02,,2013-04-08 06:22:00,
2013-04-08 02:32:00,42.0,34.0,29.92,ESE,114,1.0,4.0,72,0.00,,,0.02,,2013-04-08 06:32:00,
2013-04-08 02:42:00,42.0,34.0,29.92,ESE,114,1.0,4.0,72,0.00,,,0.02,,2013-04-08 06:42:00,
2013-04-08 02:52:00,43.0,34.0,29.91,ESE,110,4.0,8.0,71,0.00,,,0.02,,2013-04-08 06:52:00,
2013-04-08 03:02:00,43.0,34.0,29.91,ESE,103,1.0,7.0,70,0.00,,,0.02,,2013-04-08 07:02:00,
2013-04-08 03:12:00,43.0,34.0,29.91,ESE,113,0.0,6.0,71,0.00,,,0.00,,2013-04-08 07:12:00,
2013-04-08 03:22:00,43.0,34.0,29.91,ESE,113,0.0,6.0,71,0.00,,,0.00,,2013-04-08 07:22:00,
2013-04-08 03:32:00,43.0,34.0,29.91,ESE,113,0.0,6.0,71,0.00,,,0.00,,2013-04-08 07:32:00,
2013-04-08 03:42:00,43.0,34.0,29.91,ESE,113,0.0,6.0,71,0.00,,,0.00,,2013-04-08 07:42:00,
2013-04-08 03:52:00,43.0,34.0,29.90,SE,143,3.0,7.0,70,0.00,,,0.00,,2013-04-08 07:52:00,
2013-04-08 04:02:00,42.0,33.0,29.88,NE,41,1.0,6.0,70,0.00,,,0.00,,2013-04-08 08:02:00,
2013-04-08 04:12:00,42.0,33.0,29.88,NE,41,1.0,6.0,70,0.00,,,0.00,,2013-04-08 08:12:00,
2013-04-08 04:22:00,42.0,33.0,29.88,NE,41,1.0,6.0,70,0.00,,,0.00,,2013-04-08 08:22:00,
2013-04-08 04:32:00,43.0,34.0,29.88,East,93,2.0,6.0,70,0.00,,,0.00,,2013-04-08 08:32:00,
2013-04-08 04:42:00,43.0,34.0,29.87,SE,134,2.0,7.0,69,0.00,,,0.00,,2013-04-08 08:42:00,
2013-04-08 04:52:00,43.0,34.0,29.87,SE,134,2.0,7.0,69,0.00,,,0.00,,2013-04-08 08:52:00,
2013-04-08 05:02:00,43.0,34.0,29.85,ENE,58,1.0,9.0,69,0.00,,,0.00,,2013-04-08 09:02:00,
2013-04-08 05:12:00,43.0,33.0,29.85,East,97,2.0,8.0,68,0.00,,,0.00,,2013-04-08 09:12:00,
2013-04-08 05:22:00,43.0,33.0,29.85,East,97,2.0,8.0,68,0.00,,,0.00,,2013-04-08 09:22:00,
2013-04-08 05:33:00,43.0,34.0,29.84,ESE,106,2.0,6.0,69,0.00,,,0.00,,2013-04-08 09:33:00,
2013-04-08 05:42:00,43.0,34.0,29.83,SE,124,0.0,11.0,69,0.00,,,0.00,,2013-04-08 09:42:00,
2013-04-08 05:53:00,43.0,34.0,29.83,SE,124,0.0,11.0,69,0.00,,,0.00,,2013-04-08 09:53:00,
2013-04-08 06:03:00,44.0,34.0,29.83,ESE,112,3.0,8.0,68,0.00,,,0.00,,2013-04-08 10:03:00,
2013-04-08 06:13:00,44.0,34.0,29.83,ESE,112,3.0,8.0,68,0.00,,,0.00,,2013-04-08 10:13:00,
2013-04-08 06:23:00,44.0,34.0,29.82,SSE,158,2.0,7.0,68,0.00,,,0.00,,2013-04-08 10:23:00,
2013-04-08 06:33:00,44.0,34.0,29.82,ESE,121,1.0,11.0,69,0.00,,,0.00,,2013-04-08 10:33:00,
2013-04-08 06:42:00,44.0,34.0,29.82,ESE,121,1.0,11.0,69,0.00,,,0.00,,2013-04-08 10:42:00,
2013-04-08 06:53:00,44.0,34.0,29.82,ESE,117,4.0,9.0,68,0.00,,,0.00,,2013-04-08 10:53:00,
2013-04-08 07:02:00,44.0,34.0,29.82,SE,126,4.0,9.0,69,0.00,,,0.00,,2013-04-08 11:02:00,
2013-04-08 07:12:00,45.0,35.0,29.82,ESE,103,1.0,7.0,69,0.00,,,0.00,,2013-04-08 11:12:00,
2013-04-08 07:22:00,45.0,35.0,29.82,ESE,103,1.0,7.0,69,0.00,,,0.00,,2013-04-08 11:22:00,
2013-04-08 07:32:00,45.0,35.0,29.81,SE,128,4.0,9.0,69,0.00,,,0.00,,2013-04-08 11:32:00,
2013-04-08 07:42:00,45.0,35.0,29.81,SE,128,4.0,9.0,69,0.00,,,0.00,,2013-04-08 11:42:00,
2013-04-08 07:52:00,45.0,36.0,29.81,SE,140,2.0,8.0,71,0.00,,,0.00,,2013-04-08 11:52:00,
2013-04-08 08:02:00,44.0,38.0,29.81,SSE,160,2.0,7.0,78,0.01,,,0.01,,2013-04-08 12:02:00,
2013-04-08 08:12:00,44.0,38.0,29.81,SSE,160,2.0,7.0,78,0.01,,,0.01,,2013-04-08 12:12:00,
2013-04-08 08:22:00,44.0,39.0,29.80,SE,138,1.0,8.0,82,0.01,,,0.01,,2013-04-08 12:22:00,
2013-04-08 08:32:00,43.0,39.0,29.80,ESE,116,0.0,8.0,87,0.04,,,0.04,,2013-04-08 12:32:00,
2013-04-08 08:42:00,43.0,39.0,29.80,ESE,116,0.0,8.0,87,0.04,,,0.04,,2013-04-08 12:42:00,
2013-04-08 08:52:00,43.0,40.0,29.79,SE,130,1.0,8.0,89,0.06,,,0.06,,2013-04-08 12:52:00,
2013-04-08 09:02:00,43.0,41.0,29.77,SE,137,2.0,9.0,91,0.07,,,0.08,,2013-04-08 13:02:00,
2013-04-08 09:12:00,43.0,41.0,29.77,SE,137,2.0,9.0,91,0.07,,,0.08,,2013-04-08 13:12:00,
2013-04-08 09:22:00,43.0,41.0,29.75,SE,124,1.0,11.0,92,0.07,,,0.08,,2013-04-08 13:22:00,
2013-04-08 09:32:00,44.0,42.0,29.74,SE,136,2.0,9.0,92,0.04,,,0.08,,2013-04-08 13:32:00,
2013-04-08 09:42:00,44.0,42.0,29.74,SE,136,2.0,9.0,92,0.04,,,0.08,,2013-04-08 13:42:00,
2013-04-08 09:52:00,45.0,43.0,29.72,South,179,6.0,11.0,92,0.02,,,0.08,,2013-04-08 13:52:00,
2013-04-08 10:02:00,45.0,43.0,29.71,SSE,167,5.0,10.0,92,0.00,,,0.08,,2013-04-08 14:02:00,
2013-04-08 10:12:00,45.0,43.0,29.72,SSE,158,4.0,9.0,93,0.03,,,0.11,,2013-04-08 14:12:00,
2013-04-08 10:22:00,45.0,43.0,29.72,SSE,158,4.0,9.0,93,0.03,,,0.11,,2013-04-08 14:22:00,
2013-04-08 10:32:00,47.0,45.0,29.72,SE,140,5.0,11.0,94,0.04,,,0.12,,2013-04-08 14:32:00,
2013-04-08 10:42:00,48.0,46.0,29.72,South,181,2.0,10.0,94,0.04,,,0.12,,2013-04-08 14:42:00,
2013-04-08 10:52:00,48.0,46.0,29.72,South,181,2.0,10.0,94,0.04,,,0.12,,2013-04-08 14:52:00,
2013-04-08 11:02:00,48.0,46.0,29.72,South,181,2.0,10.0,94,0.04,,,0.12,,2013-04-08 15:02:00,
2013-04-08 11:12:00,51.0,49.0,29.70,SSW,196,2.0,10.0,93,0.01,,,0.12,,2013-04-08 15:12:00,
2013-04-08 11:22:00,51.0,49.0,29.70,SSW,196,2.0,10.0,93,0.01,,,0.12,,2013-04-08 15:22:00,
2013-04-08 11:35:00,53.0,51.0,29.68,South,172,3.0,14.0,93,0.00,,,0.12,,2013-04-08 15:35:00,
2013-04-08 11:43:00,53.0,51.0,29.68,South,172,3.0,14.0,93,0.00,,,0.12,,2013-04-08 15:43:00,
2013-04-08 11:53:00,55.0,52.0,29.68,SSE,154,6.0,14.0,88,0.00,,,0.12,,2013-04-08 15:53:00,
2013-04-08 12:03:00,56.0,52.0,29.67,SW,227,5.0,10.0,87,0.00,,,0.12,,2013-04-08 16:03:00,
2013-04-08 12:13:00,58.0,54.0,29.67,South,175,7.0,11.0,85,0.00,,,0.12,,2013-04-08 16:13:00,
2013-04-08 12:22:00,58.0,54.0,29.67,South,175,7.0,11.0,85,0.00,,,0.12,,2013-04-08 16:22:00,
2013-04-08 12:32:00,58.0,54.0,29.67,South,175,7.0,11.0,85,0.00,,,0.12,,2013-04-08 16:32:00,
2013-04-08 12:42:00,60.0,54.0,29.66,SSE,167,6.0,11.0,80,0.00,,,0.12,,2013-04-08 16:42:00,
2013-04-08 12:53:00,60.0,54.0,29.65,SW,224,4.0,11.0,80,0.00,,,0.12,,2013-04-08 16:53:00,
2013-04-08 13:03:00,62.0,55.0,29.66,WNW,287,6.0,16.0,79,0.00,,,0.12,,2013-04-08 17:03:00,
2013-04-08 13:12:00,64.0,54.0,29.65,WSW,239,7.0,16.0,70,0.00,,,0.12,,2013-04-08 17:12:00,
2013-04-08 13:22:00,64.0,54.0,29.65,WSW,239,7.0,16.0,70,0.00,,,0.12,,2013-04-08 17:22:00,
2013-04-08 13:32:00,65.0,53.0,29.65,West,260,11.0,24.0,65,0.00,,,0.12,,2013-04-08 17:32:00,
2013-04-08 13:43:00,65.0,53.0,29.65,West,260,11.0,24.0,65,0.00,,,0.12,,2013-04-08 17:43:00,
2013-04-08 13:52:00,65.0,53.0,29.64,WSW,256,8.0,18.0,65,0.00,,,0.12,,2013-04-08 17:52:00,
2013-04-08 14:02:00,66.0,53.0,29.65,NW,318,6.0,18.0,63,0.00,,,0.12,,2013-04-08 18:02:00,
2013-04-08 14:12:00,65.0,52.0,29.66,North,6,8.0,20.0,62,0.00,,,0.12,,2013-04-08 18:12:00,
2013-04-08 14:22:00,65.0,52.0,29.66,North,6,8.0,20.0,62,0.00,,,0.12,,2013-04-08 18:22:00,
2013-04-08 14:32:00,65.0,52.0,29.67,West,265,10.0,25.0,63,0.01,,,0.13,,2013-04-08 18:32:00,
2013-04-08 14:42:00,65.0,51.0,29.67,WNW,302,10.0,21.0,60,0.01,,,0.13,,2013-04-08 18:42:00,
2013-04-08 14:52:00,65.0,51.0,29.67,WNW,302,10.0,21.0,60,0.01,,,0.13,,2013-04-08 18:52:00,
2013-04-08 15:02:00,66.0,51.0,29.69,WSW,258,12.0,24.0,58,0.01,,,0.13,,2013-04-08 19:02:00,
2013-04-08 15:12:00,66.0,51.0,29.69,SW,233,9.0,21.0,59,0.01,,,0.13,,2013-04-08 19:12:00,
2013-04-08 15:22:00,66.0,51.0,29.69,SW,233,9.0,21.0,59,0.01,,,0.13,,2013-04-08 19:22:00,
2013-04-08 15:33:00,67.0,51.0,29.70,NW,320,8.0,23.0,56,0.00,,,0.13,,2013-04-08 19:33:00,
2013-04-08 15:42:00,66.0,50.0,29.71,WNW,302,10.0,20.0,57,0.00,,,0.13,,2013-04-08 19:42:00,
2013-04-08 15:52:00,66.0,50.0,29.71,WNW,302,10.0,20.0,57,0.00,,,0.13,,2013-04-08 19:52:00,
2013-04-08 16:02:00,66.0,50.0,29.72,West,271,8.0,16.0,57,0.00,,,0.13,,2013-04-08 20:02:00,
2013-04-08 16:12:00,67.0,51.0,29.72,WNW,284,7.0,18.0,57,0.00,,,0.13,,2013-04-08 20:12:00,
2013-04-08 16:22:00,67.0,51.0,29.72,WNW,284,7.0,18.0,57,0.00,,,0.13,,2013-04-08 20:22:00,
2013-04-08 16:33:00,67.0,51.0,29.73,WNW,291,10.0,21.0,56,0.00,,,0.13,,2013-04-08 20:33:00,
2013-04-08 16:43:00,67.0,51.0,29.73,WNW,291,10.0,21.0,56,0.00,,,0.13,,2013-04-08 20:43:00,
2013-04-08 16:52:00,68.0,52.0,29.73,WNW,296,6.0,18.0,56,0.00,,,0.13,,2013-04-08 20:52:00,
2013-04-08 17:02:00,66.0,51.0,29.74,WNW,291,7.0,18.0,58,0.00,,,0.13,,2013-04-08 21:02:00,
2013-04-08 17:12:00,64.0,50.0,29.76,NW,318,7.0,17.0,60,0.00,,,0.13,,2013-04-08 21:12:00,
2013-04-08 17:22:00,64.0,50.0,29.76,NW,318,7.0,17.0,60,0.00,,,0.13,,2013-04-08 21:22:00,
2013-04-08 17:32:00,62.0,49.0,29.77,WNW,296,5.0,15.0,63,0.00,,,0.13,,2013-04-08 21:32:00,
2013-04-08 17:43:00,62.0,49.0,29.77,WNW,296,5.0,15.0,63,0.00,,,0.13,,2013-04-08 21:43:00,
2013-04-08 17:53:00,61.0,48.0,29.78,NNW,342,1.0,14.0,63,0.00,,,0.13,,2013-04-08 21:53:00,
2013-04-08 18:13:00,60.0,48.0,29.79,NW,305,4.0,14.0,64,0.00,,,0.13,,2013-04-08 22:13:00,
2013-04-08 18:22:00,57.0,46.0,29.80,North,352,2.0,10.0,67,0.00,,,0.13,,2013-04-08 22:22:00,
2013-04-08 18:32:00,57.0,46.0,29.80,North,352,2.0,10.0,67,0.00,,,0.13,,2013-04-08 22:32:00,
2013-04-08 18:42:00,55.0,45.0,29.81,NNW,343,4.0,10.0,69,0.00,,,0.13,,2013-04-08 22:42:00,
2013-04-08 18:53:00,55.0,45.0,29.82,NNE,13,2.0,9.0,70,0.00,,,0.13,,2013-04-08 22:53:00,
2013-04-08 19:02:00,54.0,45.0,29.83,NNW,333,2.0,9.0,71,0.00,,,0.13,,2013-04-08 23:02:00,
2013-04-08 19:12:00,54.0,45.0,29.83,NNW,333,2.0,9.0,71,0.00,,,0.13,,2013-04-08 23:12:00,
2013-04-08 19:22:00,54.0,45.0,29.83,NNW,333,2.0,9.0,71,0.00,,,0.13,,2013-04-08 23:22:00,
2013-04-08 19:32:00,53.0,45.0,29.84,North,353,0.0,8.0,73,0.00,,,0.13,,2013-04-08 23:32:00,
2013-04-08 19:42:00,52.0,44.0,29.85,NNE,21,1.0,7.0,74,0.00,,,0.13,,2013-04-08 23:42:00,
2013-04-08 19:52:00,52.0,44.0,29.85,NNE,21,1.0,7.0,74,0.00,,,0.13,,2013-04-08 23:52:00,
2013-04-08 20:02:00,51.0,43.0,29.85,North,360,2.0,9.0,75,0.00,,,0.13,,2013-04-09 00:02:00,
2013-04-08 20:12:00,51.0,43.0,29.85,North,360,2.0,9.0,75,0.00,,,0.13,,2013-04-09 00:12:00,
2013-04-08 20:22:00,49.0,42.0,29.85,North,1,1.0,7.0,77,0.00,,,0.13,,2013-04-09 00:22:00,
2013-04-08 20:32:00,48.0,42.0,29.86,NNE,13,0.0,9.0,79,0.00,,,0.13,,2013-04-09 00:32:00,
2013-04-08 20:42:00,47.0,41.0,29.87,NE,34,3.0,6.0,80,0.00,,,0.13,,2013-04-09 00:42:00,
2013-04-08 20:52:00,47.0,41.0,29.87,NE,34,3.0,6.0,80,0.00,,,0.13,,2013-04-09 00:52:00,
2013-04-08 21:02:00,46.0,41.0,29.87,NNE,16,0.0,6.0,82,0.00,,,0.13,,2013-04-09 01:02:00,
2013-04-08 21:12:00,45.0,40.0,29.88,NNE,17,0.0,10.0,83,0.00,,,0.13,,2013-04-09 01:12:00,
2013-04-08 21:22:00,45.0,40.0,29.88,NNE,17,0.0,10.0,83,0.00,,,0.13,,2013-04-09 01:22:00,
2013-04-08 21:33:00,45.0,40.0,29.88,NNE,30,0.0,9.0,84,0.00,,,0.13,,2013-04-09 01:33:00,
2013-04-08 21:42:00,44.0,40.0,29.89,NNE,31,4.0,8.0,85,0.00,,,0.13,,2013-04-09 01:42:00,
2013-04-08 21:52:00,44.0,40.0,29.89,NNE,31,4.0,8.0,85,0.00,,,0.13,,2013-04-09 01:52:00,
2013-04-08 22:02:00,43.0,39.0,29.90,NNE,31,0.0,6.0,86,0.00,,,0.13,,2013-04-09 02:02:00,
2013-04-08 22:12:00,43.0,39.0,29.90,NNE,31,0.0,6.0,86,0.00,,,0.13,,2013-04-09 02:12:00,
2013-04-08 22:22:00,43.0,39.0,29.91,NE,51,0.0,4.0,87,0.00,,,0.13,,2013-04-09 02:22:00,
2013-04-08 22:32:00,42.0,39.0,29.92,NE,45,0.0,4.0,88,0.00,,,0.13,,2013-04-09 02:32:00,
2013-04-08 22:42:00,42.0,39.0,29.92,NE,42,0.0,2.0,89,0.00,,,0.13,,2013-04-09 02:42:00,
2013-04-08 22:52:00,42.0,39.0,29.92,NE,42,0.0,2.0,89,0.00,,,0.13,,2013-04-09 02:52:00,
2013-04-08 23:02:00,42.0,39.0,29.93,NE,44,0.0,2.0,90,0.00,,,0.13,,2013-04-09 03:02:00,
2013-04-08 23:12:00,42.0,39.0,29.93,NE,44,0.0,2.0,90,0.00,,,0.13,,2013-04-09 03:12:00,
2013-04-08 23:21:00,41.0,38.0,29.93,NE,44,0.0,0.0,90,0.00,,,0.13,,2013-04-09 03:21:00,
2013-04-08 23:33:00,41.0,39.0,29.94,NE,44,0.0,0.0,91,0.00,,,0.13,,2013-04-09 03:33:00,
2013-04-08 23:43:00,41.0,39.0,29.94,NE,44,0.0,0.0,91,0.00,,,0.13,,2013-04-09 03:43:00,
2013-04-08 23:53:00,41.0,39.0,29.94,NE,44,0.0,0.0,92,0.00,,,0.13,,2013-04-09 03:53:00,